createdAt,value
2022-07-28T00:03:32.710Z,98499.06
2022-07-28T00:06:40.986Z,98492.44
2022-07-28T00:09:47.328Z,98492.31
2022-07-28T00:12:53.153Z,98493.16
2022-07-28T00:15:59.607Z,98499.16
2022-07-28T00:19:06.900Z,98499.16
2022-07-28T00:22:16.002Z,98499.31
2022-07-28T00:25:21.400Z,98496.78
2022-07-28T00:28:27.696Z,98490.41
2022-07-28T00:31:33.442Z,98495.81
2022-07-28T00:34:40.764Z,98494.94
2022-07-28T00:37:50.718Z,98497.75
2022-07-28T00:41:16.920Z,98491.34
2022-07-28T00:44:22.522Z,98491.50
2022-07-28T00:47:33.616Z,98482.59
2022-07-28T00:50:42.819Z,98477.31
2022-07-28T00:53:52.129Z,98476.13
2022-07-28T00:56:57.503Z,98473.91
2022-07-28T01:00:04.164Z,98463.44
2022-07-28T01:03:10.213Z,98457.31
2022-07-28T01:06:29.429Z,98458.88
2022-07-28T01:09:53.888Z,98467.66
2022-07-28T01:13:07.347Z,98477.03
2022-07-28T01:16:13.597Z,98486.16
2022-07-28T01:19:36.838Z,98492.78
2022-07-28T01:22:48.877Z,98486.66
2022-07-28T01:26:14.694Z,98480.63
2022-07-28T01:29:32.017Z,98475.69
2022-07-28T01:32:46.277Z,98478.97
2022-07-28T01:35:57.985Z,98489.63
2022-07-28T01:39:06.396Z,98471.25
2022-07-28T01:42:16.348Z,98476.78
2022-07-28T01:45:23.989Z,98483.75
2022-07-28T01:48:34.491Z,98483.53
2022-07-28T01:51:41.506Z,98484.47
2022-07-28T01:54:49.818Z,98499.88
2022-07-28T01:57:58.726Z,98486.41
2022-07-28T02:01:07.036Z,98496.50
2022-07-28T02:04:18.711Z,98491.94
2022-07-28T02:07:25.863Z,98497.69
2022-07-28T02:10:33.149Z,98491.66
2022-07-28T02:13:39.418Z,98486.84
2022-07-28T02:16:50.251Z,98487.06
2022-07-28T02:20:00.407Z,98481.78
2022-07-28T02:23:08.717Z,98478.44
2022-07-28T02:26:18.071Z,98485.16
2022-07-28T02:29:49.639Z,98477.94
2022-07-28T02:32:56.827Z,98486.84
2022-07-28T02:36:14.164Z,98504.13
2022-07-28T02:39:27.137Z,98495.09
2022-07-28T02:42:36.539Z,98502.19
2022-07-28T02:45:44.989Z,98502.88
2022-07-28T02:48:55.514Z,98501.72
2022-07-28T02:52:07.902Z,98499.66
2022-07-28T02:55:17.849Z,98506.56
2022-07-28T02:58:26.959Z,98505.56
2022-07-28T03:01:35.089Z,98520.19
2022-07-28T03:05:03.178Z,98520.63
2022-07-28T03:08:19.238Z,98531.41
2022-07-28T03:11:24.963Z,98533.13
2022-07-28T03:14:31.212Z,98527.41
2022-07-28T03:17:36.646Z,98532.22
2022-07-28T03:20:43.395Z,98535.59
2022-07-28T03:23:54.736Z,98541.63
2022-07-28T03:27:06.119Z,98543.78
2022-07-28T03:30:15.543Z,98547.41
2022-07-28T03:33:22.081Z,98553.56
2022-07-28T03:36:35.951Z,98560.16
2022-07-28T03:39:50.035Z,98569.56
2022-07-28T03:42:56.606Z,98560.66
2022-07-28T03:46:03.060Z,98571.00
2022-07-28T03:49:11.604Z,98564.09
2022-07-28T03:52:18.066Z,98576.28
2022-07-28T03:55:26.802Z,98571.63
2022-07-28T03:58:33.101Z,98583.03
2022-07-28T04:01:38.724Z,98580.28
2022-07-28T04:04:45.233Z,98596.34
2022-07-28T04:07:52.271Z,98574.59
2022-07-28T04:11:01.320Z,98578.81
2022-07-28T04:14:07.345Z,98570.16
2022-07-28T04:17:13.665Z,98582.19
2022-07-28T04:20:20.557Z,98581.56
2022-07-28T04:23:27.046Z,98571.19
2022-07-28T04:26:35.521Z,98582.59
2022-07-28T04:29:41.907Z,98579.00
2022-07-28T04:32:48.237Z,98578.16
2022-07-28T04:35:54.854Z,98576.91
2022-07-28T04:39:00.667Z,98580.91
2022-07-28T04:42:11.782Z,98574.53
2022-07-28T04:45:17.206Z,98590.19
2022-07-28T04:48:23.971Z,98580.81
2022-07-28T04:51:31.641Z,98580.59
2022-07-28T04:54:38.264Z,98578.91
2022-07-28T04:57:46.708Z,98590.72
2022-07-28T05:00:53.089Z,98580.25
2022-07-28T05:03:58.586Z,98583.16
2022-07-28T05:07:07.856Z,98587.16
2022-07-28T05:10:18.431Z,98588.09
2022-07-28T05:13:33.359Z,98589.38
2022-07-28T05:16:39.776Z,98597.38
2022-07-28T05:19:47.018Z,98590.84
2022-07-28T05:22:53.963Z,98593.72
2022-07-28T05:26:00.241Z,98592.97
2022-07-28T05:29:09.994Z,98597.50
2022-07-28T05:32:17.748Z,98604.56
2022-07-28T05:35:24.127Z,98601.25
2022-07-28T05:38:31.107Z,98604.69
2022-07-28T05:41:36.717Z,98606.66
2022-07-28T05:44:45.791Z,98605.06
2022-07-28T05:47:53.006Z,98603.88
2022-07-28T05:50:59.382Z,98611.59
2022-07-28T05:54:06.298Z,98613.31
2022-07-28T05:57:15.221Z,98622.69
2022-07-28T06:00:25.991Z,98625.59
2022-07-28T06:03:41.468Z,98622.97
2022-07-28T06:06:47.343Z,98625.38
2022-07-28T06:09:53.569Z,98631.50
2022-07-28T06:12:59.596Z,98631.13
2022-07-28T06:16:13.279Z,98634.44
2022-07-28T06:19:18.921Z,98638.22
2022-07-28T06:22:25.165Z,98628.28
2022-07-28T06:25:32.292Z,98627.28
2022-07-28T06:28:38.909Z,98620.47
2022-07-28T06:31:47.079Z,98626.50
2022-07-28T06:34:53.290Z,98631.09
2022-07-28T06:37:58.641Z,98632.69
2022-07-28T06:41:06.718Z,98632.75
2022-07-28T06:44:12.786Z,98639.63
2022-07-28T06:47:23.400Z,98634.31
2022-07-28T06:50:29.301Z,98632.56
2022-07-28T06:53:35.709Z,98634.50
2022-07-28T06:56:41.073Z,98628.41
2022-07-28T06:59:48.394Z,98628.16
2022-07-28T07:02:56.877Z,98629.41
2022-07-28T07:06:03.518Z,98626.63
2022-07-28T07:09:10.278Z,98626.63
2022-07-28T07:12:16.494Z,98629.22
2022-07-28T07:15:22.009Z,98627.53
2022-07-28T07:18:33.245Z,98620.50
2022-07-28T07:21:38.701Z,98631.88
2022-07-28T07:24:44.878Z,98620.81
2022-07-28T07:27:50.426Z,98619.38
2022-07-28T07:30:56.776Z,98619.63
2022-07-28T07:34:06.669Z,98609.13
2022-07-28T07:37:15.324Z,98607.78
2022-07-28T07:40:20.678Z,98615.63
2022-07-28T07:43:26.964Z,98615.25
2022-07-28T07:46:32.366Z,98624.00
2022-07-28T07:49:45.154Z,98620.91
2022-07-28T07:52:52.850Z,98613.25
2022-07-28T07:55:59.182Z,98622.63
2022-07-28T07:59:06.625Z,98621.81
2022-07-28T08:02:13.036Z,98626.72
2022-07-28T08:05:21.577Z,98627.16
2022-07-28T08:08:46.438Z,98620.03
2022-07-28T08:11:53.880Z,98630.84
2022-07-28T08:15:00.322Z,98628.34
2022-07-28T08:18:07.517Z,98625.53
2022-07-28T08:21:16.723Z,98636.75
2022-07-28T08:24:33.052Z,98626.66
2022-07-28T08:27:40.370Z,98626.38
2022-07-28T08:30:45.976Z,98629.19
2022-07-28T08:33:53.814Z,98619.09
2022-07-28T08:37:03.192Z,98621.63
2022-07-28T08:40:15.029Z,98619.38
2022-07-28T08:43:33.698Z,98620.53
2022-07-28T08:46:41.830Z,98616.22
2022-07-28T08:49:47.319Z,98613.28
2022-07-28T08:52:56.904Z,98623.06
2022-07-28T08:56:07.583Z,98617.75
2022-07-28T08:59:13.849Z,98604.44
2022-07-28T09:02:20.191Z,98611.03
2022-07-28T09:05:28.032Z,98611.84
2022-07-28T09:08:36.457Z,98605.53
2022-07-28T09:11:43.205Z,98604.72
2022-07-28T09:14:49.254Z,98607.34
2022-07-28T09:17:55.837Z,98605.06
2022-07-28T09:21:01.273Z,98600.34
2022-07-28T09:24:11.716Z,98598.38
2022-07-28T09:27:18.773Z,98594.75
2022-07-28T09:30:33.338Z,98601.16
2022-07-28T09:33:43.106Z,98589.63
2022-07-28T09:36:50.332Z,98595.94
2022-07-28T09:40:04.061Z,98602.25
2022-07-28T09:43:12.050Z,98593.63
2022-07-28T09:46:19.185Z,98597.94
2022-07-28T09:49:43.426Z,98602.44
2022-07-28T09:52:50.040Z,98609.59
2022-07-28T09:56:04.712Z,98599.03
2022-07-28T09:59:12.863Z,98598.44
2022-07-28T10:02:27.266Z,98595.56
2022-07-28T10:05:43.741Z,98590.84
2022-07-28T10:08:52.721Z,98589.66
2022-07-28T10:12:21.182Z,98585.66
2022-07-28T10:15:50.693Z,98589.59
2022-07-28T10:18:57.465Z,98581.19
2022-07-28T10:22:06.406Z,98584.22
2022-07-28T10:25:13.704Z,98583.59
2022-07-28T10:28:24.802Z,98568.53
2022-07-28T10:31:38.804Z,98563.69
2022-07-28T10:34:59.251Z,98566.38
2022-07-28T10:38:15.043Z,98566.78
2022-07-28T10:41:25.201Z,98553.34
2022-07-28T10:44:38.277Z,98566.31
2022-07-28T10:47:44.795Z,98555.03
2022-07-28T10:50:50.456Z,98565.78
2022-07-28T10:54:01.047Z,98559.59
2022-07-28T10:57:09.177Z,98561.41
2022-07-28T11:00:26.386Z,98560.72
2022-07-28T11:03:44.651Z,98555.56
2022-07-28T11:06:51.398Z,98556.72
2022-07-28T11:09:57.075Z,98536.56
2022-07-28T11:13:06.106Z,98537.91
2022-07-28T11:16:26.707Z,98545.72
2022-07-28T11:23:47.612Z,98545.66
2022-07-28T11:26:54.503Z,98545.03
2022-07-28T11:30:00.182Z,98541.34
2022-07-28T11:33:11.042Z,98539.75
2022-07-28T11:36:16.499Z,98541.03
2022-07-28T11:39:25.124Z,98537.41
2022-07-28T11:42:33.789Z,98549.78
2022-07-28T11:45:45.735Z,98543.06
2022-07-28T11:49:24.065Z,98548.59
2022-07-28T11:52:31.282Z,98538.53
2022-07-28T11:55:49.181Z,98544.94
2022-07-28T11:59:04.296Z,98535.72
2022-07-28T12:02:10.333Z,98528.16
2022-07-28T12:05:20.697Z,98532.22
2022-07-28T12:08:26.086Z,98524.69
2022-07-28T12:11:35.625Z,98511.44
2022-07-28T12:14:44.947Z,98508.41
2022-07-28T12:17:52.486Z,98503.03
2022-07-28T12:21:05.211Z,98498.00
2022-07-28T12:24:15.574Z,98502.03
2022-07-28T12:27:31.829Z,98500.88
2022-07-28T12:30:38.409Z,98505.72
2022-07-28T12:33:45.111Z,98502.63
2022-07-28T12:36:57.164Z,98495.47
2022-07-28T12:40:03.552Z,98498.56
2022-07-28T12:43:09.899Z,98500.56
2022-07-28T12:46:15.358Z,98504.59
2022-07-28T12:49:25.635Z,98498.84
2022-07-28T12:52:33.925Z,98495.69
2022-07-28T12:55:43.201Z,98498.72
2022-07-28T12:58:48.885Z,98495.53
2022-07-28T13:01:57.439Z,98502.72
2022-07-28T13:05:03.303Z,98495.34
2022-07-28T13:08:12.565Z,98495.66
2022-07-28T13:11:43.195Z,98491.81
2022-07-28T13:14:48.675Z,98493.00
2022-07-28T13:17:57.268Z,98493.50
2022-07-28T13:21:03.579Z,98491.31
2022-07-28T13:24:14.508Z,98488.66
2022-07-28T13:27:21.068Z,98486.31
2022-07-28T13:30:27.262Z,98492.69
2022-07-28T13:33:39.511Z,98498.03
2022-07-28T13:36:45.083Z,98490.66
2022-07-28T13:39:54.916Z,98491.66
2022-07-28T13:43:00.348Z,98488.97
2022-07-28T13:46:07.855Z,98487.06
2022-07-28T13:49:14.102Z,98482.97
2022-07-28T13:52:32.503Z,98481.09
2022-07-28T13:55:42.625Z,98476.38
2022-07-28T13:58:48.847Z,98473.91
2022-07-28T14:01:55.594Z,98471.03
2022-07-28T14:05:03.001Z,98467.47
2022-07-28T14:08:08.832Z,98458.88
2022-07-28T14:11:19.523Z,98457.59
2022-07-28T14:14:28.538Z,98462.16
2022-07-28T14:17:43.554Z,98453.06
2022-07-28T14:20:50.332Z,98455.75
2022-07-28T14:23:57.178Z,98455.94
2022-07-28T14:27:06.542Z,98456.78
2022-07-28T14:30:14.415Z,98459.28
2022-07-28T14:33:20.756Z,98446.41
2022-07-28T14:36:26.967Z,98452.06
2022-07-28T14:39:32.597Z,98451.47
2022-07-28T14:42:42.076Z,98459.25
2022-07-28T14:46:01.624Z,98454.31
2022-07-28T14:49:13.831Z,98454.00
2022-07-28T14:52:19.210Z,98446.34
2022-07-28T14:55:26.676Z,98442.34
2022-07-28T14:58:34.935Z,98439.66
2022-07-28T15:01:41.259Z,98440.00
2022-07-28T15:04:46.837Z,98441.47
2022-07-28T15:07:53.613Z,98435.53
2022-07-28T15:10:59.238Z,98432.63
2022-07-28T15:14:08.642Z,98432.06
2022-07-28T15:17:14.293Z,98422.34
2022-07-28T15:20:20.536Z,98426.59
2022-07-28T15:23:26.412Z,98416.59
2022-07-28T15:26:32.622Z,98428.28
2022-07-28T15:29:43.419Z,98432.91
2022-07-28T15:32:56.299Z,98420.66
2022-07-28T15:36:03.480Z,98424.06
2022-07-28T15:39:14.192Z,98416.28
2022-07-28T15:42:19.762Z,98422.91
2022-07-28T15:45:29.367Z,98414.69
2022-07-28T15:48:35.076Z,98418.94
2022-07-28T15:51:42.223Z,98424.81
2022-07-28T15:54:47.933Z,98413.47
2022-07-28T15:57:55.783Z,98411.59
2022-07-28T16:01:03.959Z,98410.41
2022-07-28T16:04:10.832Z,98416.16
2022-07-28T16:07:23.709Z,98410.53
2022-07-28T16:10:30.147Z,98412.47
2022-07-28T16:13:37.624Z,98409.44
2022-07-28T16:16:46.732Z,98407.72
2022-07-28T16:19:52.319Z,98405.47
2022-07-28T16:22:59.094Z,98411.63
2022-07-28T16:26:08.235Z,98405.59
2022-07-28T16:29:14.559Z,98403.31
2022-07-28T16:32:22.762Z,98404.97
2022-07-28T16:35:32.891Z,98413.94
2022-07-28T16:38:38.263Z,98412.81
2022-07-28T16:41:47.763Z,98406.63
2022-07-28T16:44:53.835Z,98417.03
2022-07-28T16:48:04.132Z,98415.28
2022-07-28T16:51:09.708Z,98408.19
2022-07-28T16:54:16.171Z,98410.47
2022-07-28T16:57:21.836Z,98414.94
2022-07-28T17:00:29.847Z,98413.63
2022-07-28T17:03:38.081Z,98412.13
2022-07-28T17:06:45.423Z,98403.56
2022-07-28T17:09:54.375Z,98418.00
2022-07-28T17:13:00.543Z,98418.47
2022-07-28T17:16:07.873Z,98407.72
2022-07-28T17:19:18.736Z,98410.97
2022-07-28T17:22:25.087Z,98408.94
2022-07-28T17:29:00.878Z,98414.13
2022-07-28T17:32:08.378Z,98416.09
2022-07-28T17:35:31.299Z,98413.03
2022-07-28T17:38:38.173Z,98410.59
2022-07-28T17:41:43.793Z,98423.81
2022-07-28T17:44:51.246Z,98424.38
2022-07-28T17:47:56.611Z,98431.28
2022-07-28T17:51:06.163Z,98423.94
2022-07-28T17:54:13.910Z,98429.69
2022-07-28T17:57:21.783Z,98427.03
2022-07-28T18:00:30.127Z,98432.72
2022-07-28T18:03:59.386Z,98426.72
2022-07-28T18:07:06.351Z,98428.72
2022-07-28T18:10:12.893Z,98437.41
2022-07-28T18:13:19.907Z,98435.56
2022-07-28T18:16:26.240Z,98440.69
2022-07-28T18:19:32.489Z,98439.00
2022-07-28T18:22:41.759Z,98438.94
2022-07-28T18:25:47.100Z,98438.72
2022-07-28T18:28:53.821Z,98443.00
2022-07-28T18:31:59.148Z,98440.59
2022-07-28T18:35:06.509Z,98448.03
2022-07-28T18:38:14.725Z,98451.81
2022-07-28T18:41:20.984Z,98447.16
2022-07-28T18:44:26.606Z,98451.09
2022-07-28T18:47:32.903Z,98457.06
2022-07-28T18:50:40.915Z,98459.00
2022-07-28T18:53:50.223Z,98461.59
2022-07-28T18:56:55.590Z,98462.53
2022-07-28T19:00:03.799Z,98472.28
2022-07-28T19:03:09.485Z,98467.72
2022-07-28T19:06:15.756Z,98474.75
2022-07-28T19:09:24.169Z,98472.03
2022-07-28T19:12:31.616Z,98494.81
2022-07-28T19:15:37.059Z,98492.06
2022-07-28T19:18:43.685Z,98492.66
2022-07-28T19:21:49.142Z,98496.44
2022-07-28T19:24:58.486Z,98489.75
2022-07-28T19:28:03.884Z,98495.50
2022-07-28T19:31:10.938Z,98494.16
2022-07-28T19:34:17.579Z,98491.09
2022-07-28T19:37:23.963Z,98499.38
2022-07-28T19:40:32.435Z,98503.63
2022-07-28T19:43:38.699Z,98502.38
2022-07-28T19:46:45.585Z,98507.41
2022-07-28T19:49:52.183Z,98500.16
2022-07-28T19:52:57.778Z,98511.41
2022-07-28T19:56:09.014Z,98511.16
2022-07-28T19:59:15.148Z,98506.41
2022-07-28T20:02:21.406Z,98507.00
2022-07-28T20:05:26.992Z,98507.28
2022-07-28T20:08:33.217Z,98516.81
2022-07-28T20:11:41.404Z,98510.69
2022-07-28T20:14:47.576Z,98516.56
2022-07-28T20:17:53.176Z,98513.50
2022-07-28T20:20:59.558Z,98513.38
2022-07-28T20:24:27.770Z,98514.91
2022-07-28T20:27:54.194Z,98515.59
2022-07-28T20:30:59.579Z,98519.66
2022-07-28T20:34:07.223Z,98513.91
2022-07-28T20:37:28.470Z,98517.97
2022-07-28T20:40:39.292Z,98526.50
2022-07-28T20:44:11.220Z,98514.59
2022-07-28T20:47:16.692Z,98517.13
2022-07-28T20:50:25.298Z,98521.03
2022-07-28T20:53:33.247Z,98514.31
2022-07-28T20:56:38.619Z,98517.53
2022-07-28T20:59:49.153Z,98520.47
2022-07-28T21:02:54.788Z,98521.00
2022-07-28T21:06:01.430Z,98516.25
2022-07-28T21:09:08.340Z,98525.41
2022-07-28T21:12:16.534Z,98526.00
2022-07-28T21:15:24.952Z,98528.91
2022-07-28T21:18:31.284Z,98519.66
2022-07-28T21:21:39.270Z,98519.22
2022-07-28T21:24:45.446Z,98520.59
2022-07-28T21:28:06.782Z,98520.31
2022-07-28T21:31:17.398Z,98528.66
2022-07-28T21:34:22.777Z,98528.97
2022-07-28T21:37:29.226Z,98525.56
2022-07-28T21:40:38.707Z,98523.91
2022-07-28T21:43:45.487Z,98522.22
2022-07-28T21:46:53.877Z,98523.47
2022-07-28T21:50:00.122Z,98518.41
2022-07-28T21:53:06.878Z,98516.88
2022-07-28T21:56:13.562Z,98524.13
2022-07-28T21:59:18.918Z,98523.28
2022-07-28T22:02:27.942Z,98524.41
2022-07-28T22:05:34.462Z,98523.81
2022-07-28T22:08:40.986Z,98527.56
2022-07-28T22:11:46.504Z,98531.59
2022-07-28T22:14:53.217Z,98524.88
2022-07-28T22:18:01.413Z,98525.13
2022-07-28T22:21:07.984Z,98522.00
2022-07-28T22:24:13.616Z,98525.06
2022-07-28T22:27:19.991Z,98522.50
2022-07-28T22:30:30.344Z,98524.47
2022-07-28T22:33:39.415Z,98522.91
2022-07-28T22:36:45.218Z,98522.47
2022-07-28T22:39:51.774Z,98529.00
2022-07-28T22:42:57.454Z,98528.28
2022-07-28T22:46:04.289Z,98532.75
2022-07-28T22:49:12.590Z,98533.59
2022-07-28T22:52:18.776Z,98537.34
2022-07-28T22:58:47.490Z,98533.53
2022-07-28T23:01:52.832Z,98542.44
2022-07-28T23:05:03.594Z,98536.59
2022-07-28T23:08:09.458Z,98537.69
2022-07-28T23:11:17.167Z,98542.25
2022-07-28T23:14:22.638Z,98540.84
2022-07-28T23:17:28.880Z,98545.44
2022-07-28T23:20:37.532Z,98542.31
2022-07-28T23:23:44.030Z,98547.28
2022-07-28T23:26:49.524Z,98556.13
2022-07-28T23:29:55.817Z,98561.22
2022-07-28T23:33:03.016Z,98564.13
2022-07-28T23:36:16.846Z,98561.00
2022-07-28T23:39:33.400Z,98557.25
2022-07-28T23:42:39.846Z,98561.72
2022-07-28T23:45:45.340Z,98559.22
2022-07-28T23:48:51.849Z,98561.97
2022-07-28T23:52:00.341Z,98560.28
2022-07-28T23:55:08.369Z,98563.06
2022-07-28T23:58:13.920Z,98568.50
